Flight Track Log - Related Links

Times and Time Zones

All times are in EDT time to prevent confusion due to time zone crossing. See the N135FL flight status page for this flight to view local times or setup timezone preferences in your user account.

Time Position Orientation Groundspeed Altitude Reporting Facility
EDT Latitude Longitude Course Direction KTS MPH feet Rate Location/Type
Sun 08:44:04 PM 26.2978 -81.7922 270° West 162 186 5,100  Level Miami Center
Sun 08:45:04 PM 26.2961 -81.8386 268° West 142 163 6,300 1,200 Climbing Miami Center
Sun 08:46:00 PM 26.1126 -82.1329 262° West  Level FlightAware
Sun 08:46:04 PM 26.2925 -81.8847 265° West 142 163 7,500  Level Miami Center
Sun 08:47:00 PM 26.1049 -82.1939 262° West  Level FlightAware
Sun 08:47:04 PM 26.2911 -81.9308 268° West 148 170 8,600  Level Miami Center
Sun 08:48:00 PM 26.1000 -82.2551 270° West  Level FlightAware
Sun 08:48:04 PM 26.2872 -81.9747 264° West 148 170 9,800  Level Miami Center
Sun 08:49:04 PM 26.3006 -82.0147 290° West 140 161 10,900 1,050 Climbing Miami Center
Sun 08:50:04 PM 26.3306 -82.0483 315° West 145 167 11,900 1,050 Climbing Miami Center
Sun 08:51:04 PM 26.3608 -82.0822 315° West 152 175 13,000 1,100 Climbing Miami Center
Sun 08:52:04 PM 26.3886 -82.1183 311° West 152 175 14,100 1,050 Climbing Miami Center
Sun 08:53:04 PM 26.4208 -82.1544 315° West 152 175 15,100 1,000 Climbing Miami Center
Sun 08:54:04 PM 26.4528 -82.1906 315° West 158 182 16,100 1,000 Climbing Miami Center
Sun 08:55:04 PM 26.4869 -82.2294 314° West 171 197 17,100 900 Climbing Miami Center
Sun 08:56:04 PM 26.5169 -82.2678 311° West 171 197 17,900 850 Climbing Miami Center
Sun 08:57:04 PM 26.5467 -82.3039 313° West 171 197 18,800 900 Climbing Miami Center
Sun 08:58:04 PM 26.5786 -82.3425 313° West 171 197 19,700 950 Climbing Miami Center
Sun 08:59:04 PM 26.6108 -82.3767 317° Northwest 171 197 20,700 950 Climbing Miami Center
Sun 09:00:04 PM 26.6428 -82.4175 311° West 171 197 21,600 950 Climbing Miami Center
Sun 09:01:04 PM 26.6747 -82.4539 314° West 171 197 22,600 950 Climbing Miami Center
Sun 09:02:04 PM 26.7086 -82.4928 314° West 171 197 23,500 900 Climbing Miami Center
Sun 09:03:04 PM 26.7406 -82.5314 313° West 171 197 24,400 850 Climbing Miami Center
Sun 09:04:04 PM 26.7744 -82.5703 314° West 171 197 25,200 750 Climbing Miami Center
Sun 09:05:04 PM 26.8083 -82.6114 313° West 171 197 25,900 400 Climbing Miami Center
Sun 09:06:04 PM 26.8464 -82.6553 314° West 177 204 26,000 50 Climbing Miami Center
Sun 09:07:04 PM 26.8903 -82.7039 315° West 194 223 26,000  Level Miami Center
Sun 09:08:04 PM 26.9300 -82.7525 313° West 207 238 26,000  Level Miami Center
Sun 09:09:04 PM 26.9697 -82.8033 311° West 212 244 26,000  Level Miami Center
Sun 09:10:04 PM 27.0117 -82.8497 315° West 212 244 26,000  Level Miami Center
Sun 09:11:04 PM 27.0514 -82.8983 313° West 217 250 26,000  Level Miami Center
Sun 09:12:04 PM 27.0950 -82.9472 315° West 217 250 26,000  Level Miami Center
Sun 09:13:04 PM 27.1347 -82.9983 311° West 217 250 26,000  Level Miami Center
Sun 09:14:04 PM 27.1744 -83.0447 314° West 217 250 26,000  Level Miami Center
Sun 09:15:04 PM 27.2142 -83.0914 314° West 212 244 26,000  Level Miami Center
Sun 09:16:04 PM 27.2539 -83.1400 313° West 212 244 26,000  Level Miami Center
Sun 09:17:04 PM 27.2914 -83.1889 311° West 212 244 26,000  Level Miami Center
Sun 09:18:04 PM 27.3331 -83.2378 314° West 212 244 26,000  Level Miami Center
Sun 09:19:04 PM 27.3725 -83.2867 312° West 212 244 26,000  Level Miami Center
Sun 09:20:04 PM 27.4142 -83.3336 315° West 212 244 26,000  Level Miami Center
Sun 09:21:04 PM 27.4558 -83.3825 314° West 212 244 26,000  Level Miami Center
Sun 09:22:04 PM 27.4933 -83.4317 311° West 212 244 26,000  Level Miami Center
Sun 09:23:04 PM 27.5328 -83.4783 314° West 212 244 26,000  Level Miami Center
Sun 09:24:04 PM 27.5722 -83.5250 314° West 212 244 26,000  Level Miami Center
Sun 09:25:04 PM 27.6117 -83.5742 312° West 212 244 26,000  Level Miami Center
Sun 09:26:04 PM 27.6514 -83.6208 314° West 206 237 26,000  Level Miami Center
Sun 09:27:04 PM 27.6908 -83.6678 314° West 206 237 26,000  Level Miami Center
Sun 09:28:04 PM 27.7303 -83.7169 312° West 206 237 26,000  Level Miami Center
Sun 09:29:04 PM 27.7717 -83.7664 313° West 206 237 26,000  Level Miami Center
Sun 09:30:04 PM 27.8069 -83.8131 311° West 211 243 26,000  Level Miami Center
Sun 09:32:19 PM 27.8975 -83.9233 313° West 213 245 26,000  Level Jacksonville Center
Sun 09:33:19 PM 27.9389 -83.9708 315° West 213 245 26,000  Level Jacksonville Center
Sun 09:34:19 PM 27.9761 -84.0206 310° West 213 245 26,000  Level Jacksonville Center
Sun 09:35:19 PM 28.0172 -84.0681 314° West 213 245 26,000  Level Jacksonville Center
Sun 09:36:19 PM 28.0564 -84.1156 313° West 213 245 26,000  Level Jacksonville Center
Sun 09:37:19 PM 28.0956 -84.1631 313° West 213 245 26,000  Level Jacksonville Center
Sun 09:38:19 PM 28.1347 -84.2106 313° West 213 245 26,000  Level Jacksonville Center
Sun 09:39:19 PM 28.1761 -84.2631 312° West 207 238 26,000  Level Jacksonville Center
Sun 09:40:19 PM 28.2172 -84.3083 316° Northwest 207 238 26,000  Level Jacksonville Center
Sun 09:41:19 PM 28.2542 -84.3558 311° West 214 246 26,000  Level Jacksonville Center
Sun 09:42:19 PM 28.2933 -84.4036 313° West 209 241 26,000  Level Jacksonville Center
Sun 09:43:19 PM 28.3344 -84.4539 313° West 209 241 26,000  Level Jacksonville Center
Sun 09:44:19 PM 28.3736 -84.5039 312° West 216 249 26,000  Level Jacksonville Center
Sun 09:45:19 PM 28.4106 -84.5542 310° West 211 243 26,000  Level Jacksonville Center
Sun 09:46:19 PM 28.4517 -84.5997 316° Northwest 206 237 26,000  Level Jacksonville Center
Sun 09:47:19 PM 28.4928 -84.6453 316° Northwest 206 237 26,000  Level Jacksonville Center
Sun 09:48:19 PM 28.5275 -84.6931 310° West 201 231 26,000  Level Jacksonville Center
Sun 09:49:19 PM 28.5664 -84.7458 310° West 211 243 26,000  Level Jacksonville Center
Sun 09:50:19 PM 28.6033 -84.7867 316° Northwest 201 231 26,000  Level Jacksonville Center
Sun 09:51:19 PM 28.6381 -84.8369 308° West 201 231 26,000  Level Jacksonville Center
Sun 09:52:19 PM 28.6772 -84.8803 316° Northwest 201 231 26,000  Level Jacksonville Center
Sun 09:53:19 PM 28.7119 -84.9236 312° West 196 226 26,000  Level Jacksonville Center
Sun 09:54:19 PM 28.7489 -84.9692 313° West 191 220 26,000  Level Jacksonville Center
Sun 09:55:19 PM 28.7878 -85.0153 314° West 191 220 26,000  Level Jacksonville Center
Sun 09:56:19 PM 28.8222 -85.0633 309° West 196 226 26,000  Level Jacksonville Center
Sun 09:57:19 PM 28.8611 -85.1092 314° West 196 226 26,000  Level Jacksonville Center
Sun 09:58:19 PM 28.8981 -85.1550 313° West 196 226 26,000  Level Jacksonville Center
Sun 09:59:19 PM 28.9325 -85.2008 311° West 196 226 26,000  Level Jacksonville Center
Sun 10:00:19 PM 28.9714 -85.2469 314° West 196 226 26,000  Level Jacksonville Center
Sun 10:01:19 PM 29.0081 -85.2928 312° West 196 226 26,000  Level Jacksonville Center
Sun 10:02:19 PM 29.0450 -85.3364 314° West 196 226 26,000  Level Jacksonville Center
Sun 10:03:19 PM 29.0794 -85.3847 309° West 196 226 26,000  Level Jacksonville Center
Sun 10:04:19 PM 29.1161 -85.4286 314° West 191 220 26,000  Level Jacksonville Center
Sun 10:05:19 PM 29.1506 -85.4769 309° West 191 220 26,000  Level Jacksonville Center
Sun 10:06:19 PM 29.1872 -85.5231 312° West 191 220 26,000  Level Jacksonville Center
Sun 10:07:19 PM 29.2261 -85.5694 314° West 191 220 26,000  Level Jacksonville Center
Sun 10:08:19 PM 29.2647 -85.6133 315° West 191 220 26,000  Level Jacksonville Center
Sun 10:09:19 PM 29.3033 -85.6572 315° West 196 226 26,000 -50 Level Jacksonville Center
Sun 10:10:19 PM 29.3442 -85.7036 315° West 196 226 25,900 -250 Descending Jacksonville Center
Sun 10:11:19 PM 29.3789 -85.7428 315° West 196 226 25,500 -450 Descending Jacksonville Center
Sun 10:12:19 PM 29.4175 -85.7892 314° West 196 226 25,000 -450 Descending Jacksonville Center
Sun 10:13:19 PM 29.4561 -85.8356 314° West 196 226 24,600 -400 Descending Jacksonville Center
Sun 10:14:19 PM 29.4925 -85.8819 312° West 196 226 24,200 -300 Descending Jacksonville Center
Sun 10:15:19 PM 29.5311 -85.9261 315° West 196 226 24,000 -100 Descending Jacksonville Center
Sun 10:16:19 PM 29.5697 -85.9681 317° Northwest 196 226 24,000 -100 Level Jacksonville Center
Sun 10:17:19 PM 29.6064 -86.0119 314° West 196 226 23,800 -350 Descending Jacksonville Center
Sun 10:18:19 PM 29.6467 -86.0636 312° West 196 226 23,300 -500 Descending Jacksonville Center
Sun 10:19:19 PM 29.6853 -86.1103 314° West 201 231 22,800 -500 Descending Jacksonville Center
Sun 10:20:19 PM 29.7258 -86.1569 315° West 201 231 22,300 -500 Descending Jacksonville Center
Sun 10:21:19 PM 29.7644 -86.2014 315° West 196 226 21,800 -600 Descending Jacksonville Center
Sun 10:22:19 PM 29.8028 -86.2481 313° West 196 226 21,100 -700 Descending Jacksonville Center
Sun 10:23:19 PM 29.8414 -86.2925 315° West 196 226 20,400 -850 Descending Jacksonville Center
Sun 10:24:19 PM 29.8797 -86.3394 313° West 196 226 19,400 -1,050 Descending Jacksonville Center
Sun 10:25:19 PM 29.9119 -86.3789 313° West 190 219 18,300 -1,133 Descending Jacksonville Center
Sun 10:29:58 PM 30.0686 -86.5958 308° West 190 219 13,000 -1,137 Descending Jacksonville Center
Sun 10:30:04 PM 30.0747 -86.6031 314° West 191 220 12,900 -1,164 Descending Jacksonville Center
Sun 10:31:05 PM 30.1089 -86.6500 310° West 192 221 11,700 -1,230 Descending Jacksonville Center
Sun 10:32:06 PM 30.1450 -86.6994 310° West 192 221 10,400 -1,190 Descending Jacksonville Center
Sun 10:33:06 PM 30.1728 -86.7439 306° West 188 216 9,300 -1,190 Descending Jacksonville Center
Sun 10:34:00 PM 30.1738 -86.7950 308° West  Level Estimated
Sun 10:34:07 PM 30.2069 -86.7886 311° West 167 192 8,000  Level Jacksonville Center
Sun 10:35:00 PM 30.2086 -86.8403 308° West  Level Estimated
Sun 10:35:07 PM 30.2350 -86.8258 311° West 163 188 6,900  Level Jacksonville Center
Sun 10:36:08 PM 30.2608 -86.8700 304° West 161 185 5,600 -1,230 Descending Jacksonville Center
Sun 10:37:09 PM 30.2867 -86.9119 306° West 159 183 4,400 -1,181 Descending Jacksonville Center
Sun 10:38:15 PM 30.3208 -86.9567 312° West 164 189 3,100 -1,087 Descending Jacksonville Center
Sun 10:39:16 PM 30.3464 -86.9986 305° West 158 182 2,100 -689 Descending Jacksonville Center
Sun 10:40:17 PM 30.3767 -87.0314 317° Northwest 151 174 1,700 -198 Descending Jacksonville Center
Sun 10:41:17 PM 30.4050 -87.0639 315° West 126 145 1,700 -94 Level Jacksonville Center
Sun 10:42:24 PM 30.4331 -87.0986 313° West 136 157 1,500 -283 Descending Jacksonville Center
Sun 10:43:24 PM 30.4611 -87.1336 313° West 136 157 1,100 -496 Descending Jacksonville Center
Sun 10:44:25 PM 30.4747 -87.1633 298° West 111 128 500 -590 Descending Jacksonville Center
Sun 10:46:00 PM 30.4667 -87.1833 North  Level FlightAware
Sun 10:53:00 PM 30.4734 -87.1866 North  Level Estimated

Login

Don't have an account? Register now (free) for customized features, flight alerts, and more!